sensor_id;sensor_type;location;lat;lon;timestamp;pressure;altitude;pressure_sealevel;temperature;humidity
56568;BME280;42456;49.956;20.004;2023-01-28T02:01:39;98759.92;;;-2.09;81.37
56568;BME280;42456;49.956;20.004;2023-01-28T03:09:00;98772.45;;;-2.13;82.18
56568;BME280;42456;49.956;20.004;2023-01-28T08:05:35;98935.01;;;-1.78;80.18
56568;BME280;42456;49.956;20.004;2023-01-28T10:31:31;98961.59;;;-0.95;76.36
56568;BME280;42456;49.956;20.004;2023-01-28T11:33:58;98937.89;;;-0.50;74.32
56568;BME280;42456;49.956;20.004;2023-01-28T11:36:31;98936.83;;;-0.49;74.24
56568;BME280;42456;49.956;20.004;2023-01-28T11:39:13;98933.97;;;-0.46;74.51
56568;BME280;42456;49.956;20.004;2023-01-28T11:41:41;98930.23;;;-0.42;74.69
56568;BME280;42456;49.956;20.004;2023-01-28T11:44:28;98926.23;;;-0.40;74.08
56568;BME280;42456;49.956;20.004;2023-01-28T12:33:07;98930.08;;;-0.81;73.99
56568;BME280;42456;49.956;20.004;2023-01-28T12:36:36;98935.73;;;-0.82;73.86
56568;BME280;42456;49.956;20.004;2023-01-28T12:41:21;98939.20;;;-0.86;73.85
56568;BME280;42456;49.956;20.004;2023-01-28T12:52:08;98940.94;;;-0.92;74.42
56568;BME280;42456;49.956;20.004;2023-01-28T12:57:41;98938.86;;;-0.90;74.51
56568;BME280;42456;49.956;20.004;2023-01-28T13:00:37;98942.98;;;-0.93;74.43
56568;BME280;42456;49.956;20.004;2023-01-28T13:03:27;98944.59;;;-0.92;74.54
56568;BME280;42456;49.956;20.004;2023-01-28T13:06:00;98941.56;;;-0.96;74.56
56568;BME280;42456;49.956;20.004;2023-01-28T13:08:28;98945.54;;;-0.98;74.84
56568;BME280;42456;49.956;20.004;2023-01-28T13:10:57;98946.58;;;-0.99;74.80
56568;BME280;42456;49.956;20.004;2023-01-28T13:13:35;98943.30;;;-0.99;74.87
56568;BME280;42456;49.956;20.004;2023-01-28T13:16:05;98947.70;;;-1.01;74.77
56568;BME280;42456;49.956;20.004;2023-01-28T13:31:43;98963.30;;;-0.93;75.10
56568;BME280;42456;49.956;20.004;2023-01-28T13:37:28;98958.65;;;-0.85;75.05
56568;BME280;42456;49.956;20.004;2023-01-28T13:40:05;98957.11;;;-0.82;74.79
56568;BME280;42456;49.956;20.004;2023-01-28T13:42:35;98961.71;;;-0.79;74.85
56568;BME280;42456;49.956;20.004;2023-01-28T13:47:45;98964.88;;;-0.75;74.99
56568;BME280;42456;49.956;20.004;2023-01-28T13:50:23;98967.17;;;-0.75;74.82
56568;BME280;42456;49.956;20.004;2023-01-28T13:55:32;98969.32;;;-0.73;74.95
56568;BME280;42456;49.956;20.004;2023-01-28T14:01:12;98971.81;;;-0.68;74.62
56568;BME280;42456;49.956;20.004;2023-01-28T14:15:06;98985.06;;;-0.72;74.28
56568;BME280;42456;49.956;20.004;2023-01-28T14:17:45;98982.27;;;-0.75;73.75
56568;BME280;42456;49.956;20.004;2023-01-28T14:22:55;98983.20;;;-0.80;73.83
56568;BME280;42456;49.956;20.004;2023-01-28T14:28:13;98988.50;;;-0.81;73.92
56568;BME280;42456;49.956;20.004;2023-01-28T14:30:59;98987.39;;;-0.84;73.72
56568;BME280;42456;49.956;20.004;2023-01-28T14:33:30;98985.13;;;-0.87;73.80
56568;BME280;42456;49.956;20.004;2023-01-28T14:35:58;98994.50;;;-0.86;74.05
56568;BME280;42456;49.956;20.004;2023-01-28T14:38:25;98994.98;;;-0.86;73.91
56568;BME280;42456;49.956;20.004;2023-01-28T14:40:54;98996.84;;;-0.87;73.66
56568;BME280;42456;49.956;20.004;2023-01-28T14:43:24;98993.44;;;-0.88;73.81
56568;BME280;42456;49.956;20.004;2023-01-28T14:45:57;98993.02;;;-0.89;73.99
56568;BME280;42456;49.956;20.004;2023-01-28T14:48:39;98995.89;;;-0.90;73.73
56568;BME280;42456;49.956;20.004;2023-01-28T15:02:19;98998.66;;;-0.89;73.78
56568;BME280;42456;49.956;20.004;2023-01-28T15:04:47;98997.35;;;-0.91;73.70
56568;BME280;42456;49.956;20.004;2023-01-28T15:07:22;99001.73;;;-0.92;73.77
56568;BME280;42456;49.956;20.004;2023-01-28T15:10:05;99008.61;;;-0.94;73.55
56568;BME280;42456;49.956;20.004;2023-01-28T15:12:38;99009.73;;;-0.95;73.73
56568;BME280;42456;49.956;20.004;2023-01-28T15:15:11;99013.30;;;-0.97;73.86
56568;BME280;42456;49.956;20.004;2023-01-28T15:17:45;99009.96;;;-0.95;74.11
56568;BME280;42456;49.956;20.004;2023-01-28T15:20:21;99015.52;;;-0.93;74.19
56568;BME280;42456;49.956;20.004;2023-01-28T15:22:50;99015.77;;;-0.92;74.02
56568;BME280;42456;49.956;20.004;2023-01-28T15:25:20;99020.66;;;-0.92;73.81
56568;BME280;42456;49.956;20.004;2023-01-28T15:27:48;99022.13;;;-0.94;74.08
56568;BME280;42456;49.956;20.004;2023-01-28T15:30:18;99022.77;;;-0.96;73.98
56568;BME280;42456;49.956;20.004;2023-01-28T15:33:05;99023.45;;;-0.99;74.23
56568;BME280;42456;49.956;20.004;2023-01-28T15:35:34;99023.44;;;-1.00;74.22
56568;BME280;42456;49.956;20.004;2023-01-28T15:38:02;99023.24;;;-0.99;74.50
56568;BME280;42456;49.956;20.004;2023-01-28T15:40:40;99030.08;;;-0.97;74.71
56568;BME280;42456;49.956;20.004;2023-01-28T15:43:18;99033.63;;;-0.96;74.59
56568;BME280;42456;49.956;20.004;2023-01-28T15:45:47;99035.52;;;-0.95;74.65
56568;BME280;42456;49.956;20.004;2023-01-28T15:48:15;99031.36;;;-0.93;74.82
56568;BME280;42456;49.956;20.004;2023-01-28T15:50:43;99032.55;;;-0.92;74.84
56568;BME280;42456;49.956;20.004;2023-01-28T15:53:11;99032.44;;;-0.90;75.02
56568;BME280;42456;49.956;20.004;2023-01-28T15:55:43;99038.65;;;-0.88;75.09
56568;BME280;42456;49.956;20.004;2023-01-28T15:58:27;99035.41;;;-0.86;75.12
56568;BME280;42456;49.956;20.004;2023-01-28T16:01:21;99044.88;;;-0.85;74.94
56568;BME280;42456;49.956;20.004;2023-01-28T16:04:03;99046.28;;;-0.84;74.95
56568;BME280;42456;49.956;20.004;2023-01-28T16:06:36;99041.95;;;-0.83;74.99
56568;BME280;42456;49.956;20.004;2023-01-28T16:09:13;99042.80;;;-0.83;75.17
56568;BME280;42456;49.956;20.004;2023-01-28T16:11:44;99042.04;;;-0.81;75.23
56568;BME280;42456;49.956;20.004;2023-01-28T16:14:28;99040.15;;;-0.81;75.23
56568;BME280;42456;49.956;20.004;2023-01-28T16:16:56;99040.77;;;-0.79;75.56
56568;BME280;42456;49.956;20.004;2023-01-28T16:19:33;99041.69;;;-0.78;75.47
56568;BME280;42456;49.956;20.004;2023-01-28T16:22:03;99041.80;;;-0.78;75.43
56568;BME280;42456;49.956;20.004;2023-01-28T16:24:32;99044.09;;;-0.77;75.65
56568;BME280;42456;49.956;20.004;2023-01-28T16:27:04;99045.14;;;-0.76;75.94
56568;BME280;42456;49.956;20.004;2023-01-28T16:29:35;99045.84;;;-0.76;75.69
56568;BME280;42456;49.956;20.004;2023-01-28T16:32:26;99048.90;;;-0.77;75.94
56568;BME280;42456;49.956;20.004;2023-01-28T16:34:50;99049.38;;;-0.76;76.00
56568;BME280;42456;49.956;20.004;2023-01-28T16:37:17;99052.98;;;-0.76;75.89
56568;BME280;42456;49.956;20.004;2023-01-28T16:39:44;99049.84;;;-0.76;76.09
56568;BME280;42456;49.956;20.004;2023-01-28T16:42:10;99049.48;;;-0.76;75.96
56568;BME280;42456;49.956;20.004;2023-01-28T16:44:37;99051.75;;;-0.76;76.17
56568;BME280;42456;49.956;20.004;2023-01-28T16:47:04;99053.46;;;-0.76;76.14
56568;BME280;42456;49.956;20.004;2023-01-28T16:49:31;99056.41;;;-0.75;76.29
56568;BME280;42456;49.956;20.004;2023-01-28T16:51:59;99065.46;;;-0.75;76.32
56568;BME280;42456;49.956;20.004;2023-01-28T16:54:27;99062.26;;;-0.74;76.43
56568;BME280;42456;49.956;20.004;2023-01-28T16:56:54;99065.86;;;-0.74;76.56
56568;BME280;42456;49.956;20.004;2023-01-28T16:59:22;99065.70;;;-0.73;76.71
56568;BME280;42456;49.956;20.004;2023-01-28T17:01:49;99065.82;;;-0.72;76.53
56568;BME280;42456;49.956;20.004;2023-01-28T17:04:16;99064.14;;;-0.72;76.36
56568;BME280;42456;49.956;20.004;2023-01-28T17:06:43;99068.95;;;-0.71;76.86
56568;BME280;42456;49.956;20.004;2023-01-28T17:09:12;99070.38;;;-0.72;76.69
56568;BME280;42456;49.956;20.004;2023-01-28T17:11:39;99075.16;;;-0.70;76.84
56568;BME280;42456;49.956;20.004;2023-01-28T17:14:07;99076.76;;;-0.69;76.89
56568;BME280;42456;49.956;20.004;2023-01-28T17:16:34;99070.89;;;-0.69;76.95
56568;BME280;42456;49.956;20.004;2023-01-28T17:19:01;99068.57;;;-0.69;77.11
56568;BME280;42456;49.956;20.004;2023-01-28T17:21:28;99066.67;;;-0.69;76.98
56568;BME280;42456;49.956;20.004;2023-01-28T17:23:55;99069.63;;;-0.69;77.05
56568;BME280;42456;49.956;20.004;2023-01-28T17:26:24;99070.63;;;-0.69;77.17
56568;BME280;42456;49.956;20.004;2023-01-28T17:28:52;99067.98;;;-0.70;77.25
56568;BME280;42456;49.956;20.004;2023-01-28T17:31:20;99068.35;;;-0.70;77.37
56568;BME280;42456;49.956;20.004;2023-01-28T17:33:52;99072.00;;;-0.69;77.14
56568;BME280;42456;49.956;20.004;2023-01-28T17:36:19;99068.91;;;-0.70;77.27
56568;BME280;42456;49.956;20.004;2023-01-28T17:38:46;99068.44;;;-0.70;77.53
56568;BME280;42456;49.956;20.004;2023-01-28T17:41:14;99065.76;;;-0.70;77.55
56568;BME280;42456;49.956;20.004;2023-01-28T17:43:44;99068.44;;;-0.70;77.60
56568;BME280;42456;49.956;20.004;2023-01-28T17:46:15;99074.14;;;-0.71;77.64
56568;BME280;42456;49.956;20.004;2023-01-28T17:48:42;99076.05;;;-0.70;77.76
56568;BME280;42456;49.956;20.004;2023-01-28T17:51:26;99074.05;;;-0.70;77.80
56568;BME280;42456;49.956;20.004;2023-01-28T17:53:52;99077.37;;;-0.70;77.97
56568;BME280;42456;49.956;20.004;2023-01-28T17:56:23;99081.60;;;-0.70;78.04
56568;BME280;42456;49.956;20.004;2023-01-28T17:58:57;99085.52;;;-0.69;78.10
56568;BME280;42456;49.956;20.004;2023-01-28T18:01:25;99084.56;;;-0.70;78.15
56568;BME280;42456;49.956;20.004;2023-01-28T18:03:52;99084.61;;;-0.70;78.44
56568;BME280;42456;49.956;20.004;2023-01-28T18:06:20;99086.36;;;-0.70;78.65
56568;BME280;42456;49.956;20.004;2023-01-28T18:08:48;99090.59;;;-0.70;78.38
56568;BME280;42456;49.956;20.004;2023-01-28T18:11:16;99090.41;;;-0.71;78.48
56568;BME280;42456;49.956;20.004;2023-01-28T18:13:44;99097.41;;;-0.72;78.75
56568;BME280;42456;49.956;20.004;2023-01-28T18:16:13;99094.67;;;-0.71;78.78
56568;BME280;42456;49.956;20.004;2023-01-28T18:18:41;99100.74;;;-0.72;78.82
56568;BME280;42456;49.956;20.004;2023-01-28T18:21:32;99106.60;;;-0.72;78.89
56568;BME280;42456;49.956;20.004;2023-01-28T18:24:18;99110.89;;;-0.71;79.03
56568;BME280;42456;49.956;20.004;2023-01-28T18:26:45;99115.07;;;-0.71;79.02
56568;BME280;42456;49.956;20.004;2023-01-28T18:29:12;99112.48;;;-0.71;79.28
56568;BME280;42456;49.956;20.004;2023-01-28T18:31:47;99114.86;;;-0.71;79.13
56568;BME280;42456;49.956;20.004;2023-01-28T18:34:15;99115.38;;;-0.72;79.03
56568;BME280;42456;49.956;20.004;2023-01-28T18:36:42;99119.61;;;-0.71;79.16
56568;BME280;42456;49.956;20.004;2023-01-28T18:39:13;99117.02;;;-0.71;79.18
56568;BME280;42456;49.956;20.004;2023-01-28T18:41:40;99116.14;;;-0.71;79.32
56568;BME280;42456;49.956;20.004;2023-01-28T18:44:08;99119.57;;;-0.71;79.56
56568;BME280;42456;49.956;20.004;2023-01-28T18:46:36;99118.73;;;-0.71;79.42
56568;BME280;42456;49.956;20.004;2023-01-28T18:49:03;99117.77;;;-0.72;79.43
56568;BME280;42456;49.956;20.004;2023-01-28T18:51:30;99122.84;;;-0.71;79.28
56568;BME280;42456;49.956;20.004;2023-01-28T18:53:58;99115.52;;;-0.71;79.44
56568;BME280;42456;49.956;20.004;2023-01-28T18:56:26;99119.45;;;-0.71;79.41
56568;BME280;42456;49.956;20.004;2023-01-28T18:59:01;99124.21;;;-0.71;79.41
56568;BME280;42456;49.956;20.004;2023-01-28T19:01:30;99123.41;;;-0.71;79.55
56568;BME280;42456;49.956;20.004;2023-01-28T19:03:58;99126.10;;;-0.72;79.60
56568;BME280;42456;49.956;20.004;2023-01-28T19:06:26;99127.66;;;-0.73;79.58
56568;BME280;42456;49.956;20.004;2023-01-28T19:09:03;99123.73;;;-0.74;79.74
56568;BME280;42456;49.956;20.004;2023-01-28T19:11:33;99122.42;;;-0.73;79.71
56568;BME280;42456;49.956;20.004;2023-01-28T19:14:01;99120.36;;;-0.73;79.97
56568;BME280;42456;49.956;20.004;2023-01-28T19:16:28;99125.35;;;-0.73;80.20
56568;BME280;42456;49.956;20.004;2023-01-28T19:18:57;99130.36;;;-0.72;80.12
56568;BME280;42456;49.956;20.004;2023-01-28T19:21:26;99130.11;;;-0.72;80.32
56568;BME280;42456;49.956;20.004;2023-01-28T19:23:55;99133.77;;;-0.71;80.19
56568;BME280;42456;49.956;20.004;2023-01-28T19:26:23;99130.60;;;-0.71;80.23
56568;BME280;42456;49.956;20.004;2023-01-28T19:28:50;99131.91;;;-0.72;80.38
56568;BME280;42456;49.956;20.004;2023-01-28T19:31:18;99134.07;;;-0.72;80.30
56568;BME280;42456;49.956;20.004;2023-01-28T19:33:47;99130.00;;;-0.72;80.46
56568;BME280;42456;49.956;20.004;2023-01-28T19:36:14;99136.86;;;-0.72;80.49
56568;BME280;42456;49.956;20.004;2023-01-28T19:38:41;99134.80;;;-0.72;80.46
56568;BME280;42456;49.956;20.004;2023-01-28T19:41:08;99140.20;;;-0.72;80.54
56568;BME280;42456;49.956;20.004;2023-01-28T19:43:35;99136.43;;;-0.73;80.39
56568;BME280;42456;49.956;20.004;2023-01-28T19:46:03;99134.15;;;-0.73;80.58
56568;BME280;42456;49.956;20.004;2023-01-28T19:48:32;99140.27;;;-0.74;80.45
56568;BME280;42456;49.956;20.004;2023-01-28T19:51:06;99145.09;;;-0.73;80.47
56568;BME280;42456;49.956;20.004;2023-01-28T19:53:34;99140.89;;;-0.74;80.78
56568;BME280;42456;49.956;20.004;2023-01-28T19:56:04;99146.55;;;-0.73;80.49
56568;BME280;42456;49.956;20.004;2023-01-28T19:58:33;99144.23;;;-0.74;80.69
56568;BME280;42456;49.956;20.004;2023-01-28T20:01:10;99140.21;;;-0.74;80.80
56568;BME280;42456;49.956;20.004;2023-01-28T20:03:38;99146.22;;;-0.74;80.69
56568;BME280;42456;49.956;20.004;2023-01-28T20:06:07;99151.14;;;-0.74;80.77
56568;BME280;42456;49.956;20.004;2023-01-28T20:08:34;99152.74;;;-0.76;80.85
56568;BME280;42456;49.956;20.004;2023-01-28T20:11:13;99154.23;;;-0.76;81.01
56568;BME280;42456;49.956;20.004;2023-01-28T20:13:43;99159.84;;;-0.77;80.86
56568;BME280;42456;49.956;20.004;2023-01-28T20:16:12;99158.36;;;-0.78;80.80
56568;BME280;42456;49.956;20.004;2023-01-28T20:18:42;99156.02;;;-0.79;81.07
56568;BME280;42456;49.956;20.004;2023-01-28T20:21:08;99157.48;;;-0.80;80.88
56568;BME280;42456;49.956;20.004;2023-01-28T20:23:35;99162.95;;;-0.81;81.03
56568;BME280;42456;49.956;20.004;2023-01-28T20:26:02;99163.02;;;-0.82;81.12
56568;BME280;42456;49.956;20.004;2023-01-28T20:28:29;99157.10;;;-0.82;81.08
56568;BME280;42456;49.956;20.004;2023-01-28T20:30:56;99156.48;;;-0.81;81.17
56568;BME280;42456;49.956;20.004;2023-01-28T20:33:23;99152.15;;;-0.82;81.18
56568;BME280;42456;49.956;20.004;2023-01-28T20:35:50;99157.86;;;-0.81;81.29
56568;BME280;42456;49.956;20.004;2023-01-28T20:38:17;99162.41;;;-0.81;81.20
56568;BME280;42456;49.956;20.004;2023-01-28T20:40:43;99160.04;;;-0.81;81.34
56568;BME280;42456;49.956;20.004;2023-01-28T20:43:11;99159.15;;;-0.80;81.17
56568;BME280;42456;49.956;20.004;2023-01-28T20:45:38;99155.49;;;-0.81;81.27
56568;BME280;42456;49.956;20.004;2023-01-28T20:48:05;99153.80;;;-0.81;81.33
56568;BME280;42456;49.956;20.004;2023-01-28T20:50:33;99152.48;;;-0.81;81.35
56568;BME280;42456;49.956;20.004;2023-01-28T20:53:00;99156.99;;;-0.80;81.47
56568;BME280;42456;49.956;20.004;2023-01-28T20:55:27;99157.80;;;-0.80;81.53
56568;BME280;42456;49.956;20.004;2023-01-28T20:57:54;99162.29;;;-0.79;81.56
56568;BME280;42456;49.956;20.004;2023-01-28T21:00:21;99167.95;;;-0.81;81.46
56568;BME280;42456;49.956;20.004;2023-01-28T21:02:48;99167.77;;;-0.83;81.52
56568;BME280;42456;49.956;20.004;2023-01-28T21:05:15;99165.45;;;-0.85;81.36
56568;BME280;42456;49.956;20.004;2023-01-28T21:07:42;99161.09;;;-0.86;81.70
56568;BME280;42456;49.956;20.004;2023-01-28T21:10:09;99161.09;;;-0.86;81.80
56568;BME280;42456;49.956;20.004;2023-01-28T21:12:36;99164.73;;;-0.86;81.85
56568;BME280;42456;49.956;20.004;2023-01-28T21:15:03;99171.73;;;-0.86;81.88
56568;BME280;42456;49.956;20.004;2023-01-28T21:17:31;99170.36;;;-0.85;81.99
56568;BME280;42456;49.956;20.004;2023-01-28T21:19:58;99172.84;;;-0.85;82.12
56568;BME280;42456;49.956;20.004;2023-01-28T21:22:25;99171.70;;;-0.84;82.14
56568;BME280;42456;49.956;20.004;2023-01-28T21:24:51;99174.93;;;-0.84;82.18
56568;BME280;42456;49.956;20.004;2023-01-28T21:27:18;99175.90;;;-0.83;82.18
56568;BME280;42456;49.956;20.004;2023-01-28T21:29:45;99183.04;;;-0.82;82.22
56568;BME280;42456;49.956;20.004;2023-01-28T21:32:12;99181.23;;;-0.82;82.23
56568;BME280;42456;49.956;20.004;2023-01-28T21:34:41;99182.58;;;-0.82;82.40
56568;BME280;42456;49.956;20.004;2023-01-28T21:37:08;99180.94;;;-0.81;82.37
56568;BME280;42456;49.956;20.004;2023-01-28T21:39:34;99181.63;;;-0.82;82.32
56568;BME280;42456;49.956;20.004;2023-01-28T21:42:01;99180.52;;;-0.81;82.35
56568;BME280;42456;49.956;20.004;2023-01-28T21:44:28;99180.44;;;-0.80;82.21
56568;BME280;42456;49.956;20.004;2023-01-28T21:46:55;99182.39;;;-0.79;82.61
56568;BME280;42456;49.956;20.004;2023-01-28T21:49:22;99189.75;;;-0.79;82.30
56568;BME280;42456;49.956;20.004;2023-01-28T21:51:49;99194.88;;;-0.79;82.31
56568;BME280;42456;49.956;20.004;2023-01-28T21:54:17;99197.14;;;-0.79;82.43
56568;BME280;42456;49.956;20.004;2023-01-28T21:56:46;99198.27;;;-0.79;82.32
56568;BME280;42456;49.956;20.004;2023-01-28T21:59:15;99194.02;;;-0.78;82.38
56568;BME280;42456;49.956;20.004;2023-01-28T22:02:02;99192.73;;;-0.78;82.57
56568;BME280;42456;49.956;20.004;2023-01-28T22:04:32;99199.23;;;-0.78;82.36
56568;BME280;42456;49.956;20.004;2023-01-28T22:06:59;99195.59;;;-0.78;82.63
56568;BME280;42456;49.956;20.004;2023-01-28T22:09:28;99192.99;;;-0.79;82.30
56568;BME280;42456;49.956;20.004;2023-01-28T22:11:55;99196.42;;;-0.79;82.61
56568;BME280;42456;49.956;20.004;2023-01-28T22:14:22;99198.80;;;-0.79;82.64
56568;BME280;42456;49.956;20.004;2023-01-28T22:16:49;99192.10;;;-0.78;82.74
56568;BME280;42456;49.956;20.004;2023-01-28T22:19:16;99185.67;;;-0.79;82.74
56568;BME280;42456;49.956;20.004;2023-01-28T22:21:44;99181.82;;;-0.79;82.71
56568;BME280;42456;49.956;20.004;2023-01-28T22:24:13;99178.91;;;-0.80;82.71
56568;BME280;42456;49.956;20.004;2023-01-28T22:26:41;99171.94;;;-0.80;82.77
56568;BME280;42456;49.956;20.004;2023-01-28T22:29:10;99174.45;;;-0.79;82.92
56568;BME280;42456;49.956;20.004;2023-01-28T22:31:37;99180.29;;;-0.79;82.78
56568;BME280;42456;49.956;20.004;2023-01-28T22:34:04;99180.39;;;-0.80;82.75
56568;BME280;42456;49.956;20.004;2023-01-28T22:36:31;99179.34;;;-0.79;82.97
56568;BME280;42456;49.956;20.004;2023-01-28T22:39:00;99176.59;;;-0.79;82.92
56568;BME280;42456;49.956;20.004;2023-01-28T22:41:27;99179.13;;;-0.80;82.91
56568;BME280;42456;49.956;20.004;2023-01-28T22:43:54;99178.50;;;-0.79;82.82
56568;BME280;42456;49.956;20.004;2023-01-28T22:46:22;99177.39;;;-0.79;82.90
56568;BME280;42456;49.956;20.004;2023-01-28T22:48:50;99169.27;;;-0.79;83.13
56568;BME280;42456;49.956;20.004;2023-01-28T22:51:20;99167.23;;;-0.78;83.15
56568;BME280;42456;49.956;20.004;2023-01-28T22:53:47;99174.76;;;-0.77;83.28
56568;BME280;42456;49.956;20.004;2023-01-28T22:56:16;99179.45;;;-0.76;83.06
56568;BME280;42456;49.956;20.004;2023-01-28T22:58:44;99176.87;;;-0.77;83.12
56568;BME280;42456;49.956;20.004;2023-01-28T23:01:11;99174.86;;;-0.76;83.13
56568;BME280;42456;49.956;20.004;2023-01-28T23:03:49;99177.92;;;-0.77;83.06
56568;BME280;42456;49.956;20.004;2023-01-28T23:06:17;99180.46;;;-0.76;83.13
56568;BME280;42456;49.956;20.004;2023-01-28T23:08:45;99180.64;;;-0.76;83.30
56568;BME280;42456;49.956;20.004;2023-01-28T23:11:13;99186.54;;;-0.77;83.26
56568;BME280;42456;49.956;20.004;2023-01-28T23:13:53;99190.86;;;-0.75;83.39
56568;BME280;42456;49.956;20.004;2023-01-28T23:16:34;99190.80;;;-0.75;83.42
56568;BME280;42456;49.956;20.004;2023-01-28T23:19:15;99186.00;;;-0.74;83.41
56568;BME280;42456;49.956;20.004;2023-01-28T23:21:56;99189.80;;;-0.75;83.34
56568;BME280;42456;49.956;20.004;2023-01-28T23:24:37;99186.48;;;-0.75;83.50
56568;BME280;42456;49.956;20.004;2023-01-28T23:27:04;99180.27;;;-0.76;83.38
56568;BME280;42456;49.956;20.004;2023-01-28T23:29:31;99179.95;;;-0.76;83.33
56568;BME280;42456;49.956;20.004;2023-01-28T23:32:00;99174.41;;;-0.76;83.45
56568;BME280;42456;49.956;20.004;2023-01-28T23:34:32;99171.67;;;-0.75;83.50
56568;BME280;42456;49.956;20.004;2023-01-28T23:37:01;99173.85;;;-0.74;83.38
56568;BME280;42456;49.956;20.004;2023-01-28T23:39:28;99179.66;;;-0.74;83.71
56568;BME280;42456;49.956;20.004;2023-01-28T23:41:55;99172.63;;;-0.74;83.62
56568;BME280;42456;49.956;20.004;2023-01-28T23:44:26;99167.88;;;-0.74;83.45
56568;BME280;42456;49.956;20.004;2023-01-28T23:46:53;99163.17;;;-0.75;83.48
56568;BME280;42456;49.956;20.004;2023-01-28T23:49:20;99157.58;;;-0.75;83.78
56568;BME280;42456;49.956;20.004;2023-01-28T23:51:47;99159.33;;;-0.75;83.61
56568;BME280;42456;49.956;20.004;2023-01-28T23:54:15;99160.46;;;-0.75;83.65
56568;BME280;42456;49.956;20.004;2023-01-28T23:56:43;99161.04;;;-0.76;83.61
56568;BME280;42456;49.956;20.004;2023-01-28T23:59:09;99163.68;;;-0.76;83.71
